sensor_id;sensor_type;location;lat;lon;timestamp;temperature;humidity
12588;DHT22;6359;51.450;7.346;2023-03-01T00:01:28;-4.10;99.90
12588;DHT22;6359;51.450;7.346;2023-03-01T00:03:56;-4.10;99.90
12588;DHT22;6359;51.450;7.346;2023-03-01T00:06:24;-4.00;99.90
12588;DHT22;6359;51.450;7.346;2023-03-01T00:08:51;-3.80;99.90
12588;DHT22;6359;51.450;7.346;2023-03-01T00:11:22;-3.70;99.90
12588;DHT22;6359;51.450;7.346;2023-03-01T00:13:51;-3.70;99.90
12588;DHT22;6359;51.450;7.346;2023-03-01T00:16:19;-3.70;99.90
12588;DHT22;6359;51.450;7.346;2023-03-01T00:18:47;-3.80;99.90
12588;DHT22;6359;51.450;7.346;2023-03-01T00:21:14;-3.90;99.90
12588;DHT22;6359;51.450;7.346;2023-03-01T00:23:41;-4.10;99.90
12588;DHT22;6359;51.450;7.346;2023-03-01T00:26:09;-4.20;99.90
12588;DHT22;6359;51.450;7.346;2023-03-01T00:28:38;-4.20;99.90
12588;DHT22;6359;51.450;7.346;2023-03-01T00:31:06;-4.30;99.90
12588;DHT22;6359;51.450;7.346;2023-03-01T00:33:33;-4.40;99.90
12588;DHT22;6359;51.450;7.346;2023-03-01T00:36:01;-4.40;99.90
12588;DHT22;6359;51.450;7.346;2023-03-01T00:38:28;-4.40;99.90
12588;DHT22;6359;51.450;7.346;2023-03-01T00:40:55;-4.40;99.90
12588;DHT22;6359;51.450;7.346;2023-03-01T00:43:22;-4.40;99.90
12588;DHT22;6359;51.450;7.346;2023-03-01T00:45:50;-4.40;99.90
12588;DHT22;6359;51.450;7.346;2023-03-01T00:48:17;-4.50;99.90
12588;DHT22;6359;51.450;7.346;2023-03-01T00:50:43;-4.60;99.90
12588;DHT22;6359;51.450;7.346;2023-03-01T00:53:10;-4.60;99.90
12588;DHT22;6359;51.450;7.346;2023-03-01T00:55:37;-4.60;99.90
12588;DHT22;6359;51.450;7.346;2023-03-01T00:58:04;-4.60;99.90
12588;DHT22;6359;51.450;7.346;2023-03-01T01:00:31;-4.60;99.90
12588;DHT22;6359;51.450;7.346;2023-03-01T01:02:59;-4.70;99.90
12588;DHT22;6359;51.450;7.346;2023-03-01T01:05:26;-4.80;99.90
12588;DHT22;6359;51.450;7.346;2023-03-01T01:07:53;-4.80;99.90
12588;DHT22;6359;51.450;7.346;2023-03-01T01:10:20;-4.80;99.90
12588;DHT22;6359;51.450;7.346;2023-03-01T01:12:47;-4.80;99.90
12588;DHT22;6359;51.450;7.346;2023-03-01T01:15:14;-4.80;99.90
12588;DHT22;6359;51.450;7.346;2023-03-01T01:17:42;-4.70;99.90
12588;DHT22;6359;51.450;7.346;2023-03-01T01:20:11;-4.80;99.90
12588;DHT22;6359;51.450;7.346;2023-03-01T01:22:38;-4.80;99.90
12588;DHT22;6359;51.450;7.346;2023-03-01T01:25:05;-4.80;99.90
12588;DHT22;6359;51.450;7.346;2023-03-01T01:27:32;-4.80;99.90
12588;DHT22;6359;51.450;7.346;2023-03-01T01:29:59;-4.70;99.90
12588;DHT22;6359;51.450;7.346;2023-03-01T01:32:26;-4.70;99.90
12588;DHT22;6359;51.450;7.346;2023-03-01T01:34:53;-4.80;99.90
12588;DHT22;6359;51.450;7.346;2023-03-01T01:37:22;-4.80;99.90
12588;DHT22;6359;51.450;7.346;2023-03-01T01:39:54;-4.90;99.90
12588;DHT22;6359;51.450;7.346;2023-03-01T01:42:21;-5.00;99.90
12588;DHT22;6359;51.450;7.346;2023-03-01T01:45:15;-4.90;99.90
12588;DHT22;6359;51.450;7.346;2023-03-01T01:47:35;-4.90;99.90
12588;DHT22;6359;51.450;7.346;2023-03-01T01:50:02;-4.80;99.90
12588;DHT22;6359;51.450;7.346;2023-03-01T01:52:33;-4.90;99.90
12588;DHT22;6359;51.450;7.346;2023-03-01T01:55:04;-4.90;99.90
12588;DHT22;6359;51.450;7.346;2023-03-01T01:57:34;-4.90;99.90
12588;DHT22;6359;51.450;7.346;2023-03-01T02:00:05;-4.90;99.90
12588;DHT22;6359;51.450;7.346;2023-03-01T02:02:33;-5.00;99.90
12588;DHT22;6359;51.450;7.346;2023-03-01T02:05:05;-5.00;99.90
12588;DHT22;6359;51.450;7.346;2023-03-01T02:07:38;-5.00;99.90
12588;DHT22;6359;51.450;7.346;2023-03-01T02:10:06;-4.80;99.90
12588;DHT22;6359;51.450;7.346;2023-03-01T02:12:34;-4.70;99.90
12588;DHT22;6359;51.450;7.346;2023-03-01T02:15:04;-4.60;99.90
12588;DHT22;6359;51.450;7.346;2023-03-01T02:17:31;-4.60;99.90
12588;DHT22;6359;51.450;7.346;2023-03-01T02:20:07;-4.60;99.90
12588;DHT22;6359;51.450;7.346;2023-03-01T02:22:43;-4.60;99.90
12588;DHT22;6359;51.450;7.346;2023-03-01T02:25:27;-4.70;99.90
12588;DHT22;6359;51.450;7.346;2023-03-01T02:27:58;-4.70;99.90
12588;DHT22;6359;51.450;7.346;2023-03-01T02:30:28;-4.80;99.90
12588;DHT22;6359;51.450;7.346;2023-03-01T02:32:56;-4.80;99.90
12588;DHT22;6359;51.450;7.346;2023-03-01T02:35:30;-4.70;99.90
12588;DHT22;6359;51.450;7.346;2023-03-01T02:37:59;-4.70;99.90
12588;DHT22;6359;51.450;7.346;2023-03-01T02:40:28;-4.70;99.90
12588;DHT22;6359;51.450;7.346;2023-03-01T02:42:58;-4.80;99.90
12588;DHT22;6359;51.450;7.346;2023-03-01T02:45:26;-4.70;99.90
12588;DHT22;6359;51.450;7.346;2023-03-01T02:47:55;-4.60;99.90
12588;DHT22;6359;51.450;7.346;2023-03-01T02:50:39;-4.60;99.90
12588;DHT22;6359;51.450;7.346;2023-03-01T02:53:15;-4.60;99.90
12588;DHT22;6359;51.450;7.346;2023-03-01T02:55:42;-4.70;99.90
12588;DHT22;6359;51.450;7.346;2023-03-01T02:58:10;-4.70;99.90
12588;DHT22;6359;51.450;7.346;2023-03-01T03:00:39;-4.80;99.90
12588;DHT22;6359;51.450;7.346;2023-03-01T03:03:13;-4.70;99.90
12588;DHT22;6359;51.450;7.346;2023-03-01T03:05:40;-4.70;99.90
12588;DHT22;6359;51.450;7.346;2023-03-01T03:08:07;-4.70;99.90
12588;DHT22;6359;51.450;7.346;2023-03-01T03:10:36;-4.70;99.90
12588;DHT22;6359;51.450;7.346;2023-03-01T03:13:05;-4.70;99.90
12588;DHT22;6359;51.450;7.346;2023-03-01T03:15:33;-4.80;99.90
12588;DHT22;6359;51.450;7.346;2023-03-01T03:18:02;-4.90;99.90
12588;DHT22;6359;51.450;7.346;2023-03-01T03:20:32;-5.00;99.90
12588;DHT22;6359;51.450;7.346;2023-03-01T03:22:59;-5.10;99.90
12588;DHT22;6359;51.450;7.346;2023-03-01T03:25:27;-5.20;99.90
12588;DHT22;6359;51.450;7.346;2023-03-01T03:27:55;-5.20;99.90
12588;DHT22;6359;51.450;7.346;2023-03-01T03:30:25;-5.30;99.90
12588;DHT22;6359;51.450;7.346;2023-03-01T03:32:53;-5.20;99.90
12588;DHT22;6359;51.450;7.346;2023-03-01T03:35:21;-5.40;99.90
12588;DHT22;6359;51.450;7.346;2023-03-01T03:37:49;-5.40;99.90
12588;DHT22;6359;51.450;7.346;2023-03-01T03:40:31;-5.40;99.90
12588;DHT22;6359;51.450;7.346;2023-03-01T03:42:58;-5.40;99.90
12588;DHT22;6359;51.450;7.346;2023-03-01T03:45:25;-5.40;99.90
12588;DHT22;6359;51.450;7.346;2023-03-01T03:47:52;-5.40;99.90
12588;DHT22;6359;51.450;7.346;2023-03-01T03:50:19;-5.40;99.90
12588;DHT22;6359;51.450;7.346;2023-03-01T03:52:45;-5.40;99.90
12588;DHT22;6359;51.450;7.346;2023-03-01T03:55:14;-5.30;99.90
12588;DHT22;6359;51.450;7.346;2023-03-01T03:57:45;-5.20;99.90
12588;DHT22;6359;51.450;7.346;2023-03-01T04:00:18;-5.20;99.90
12588;DHT22;6359;51.450;7.346;2023-03-01T04:02:45;-5.30;99.90
12588;DHT22;6359;51.450;7.346;2023-03-01T04:05:14;-5.30;99.90
12588;DHT22;6359;51.450;7.346;2023-03-01T04:07:42;-5.40;99.90
12588;DHT22;6359;51.450;7.346;2023-03-01T04:10:11;-5.50;99.90
12588;DHT22;6359;51.450;7.346;2023-03-01T04:12:39;-5.60;99.90
12588;DHT22;6359;51.450;7.346;2023-03-01T04:15:10;-5.70;99.90
12588;DHT22;6359;51.450;7.346;2023-03-01T04:17:39;-5.70;99.90
12588;DHT22;6359;51.450;7.346;2023-03-01T04:20:08;-5.80;99.90
12588;DHT22;6359;51.450;7.346;2023-03-01T04:22:36;-5.80;99.90
12588;DHT22;6359;51.450;7.346;2023-03-01T04:25:03;-5.80;99.90
12588;DHT22;6359;51.450;7.346;2023-03-01T04:27:32;-5.80;99.90
12588;DHT22;6359;51.450;7.346;2023-03-01T04:30:00;-5.90;99.90
12588;DHT22;6359;51.450;7.346;2023-03-01T04:32:27;-5.80;99.90
12588;DHT22;6359;51.450;7.346;2023-03-01T04:34:54;-5.90;99.90
12588;DHT22;6359;51.450;7.346;2023-03-01T04:37:21;-5.90;99.90
12588;DHT22;6359;51.450;7.346;2023-03-01T04:39:49;-5.90;99.90
12588;DHT22;6359;51.450;7.346;2023-03-01T04:42:16;-5.90;99.90
12588;DHT22;6359;51.450;7.346;2023-03-01T04:44:43;-6.00;99.90
12588;DHT22;6359;51.450;7.346;2023-03-01T04:47:11;-6.00;99.90
12588;DHT22;6359;51.450;7.346;2023-03-01T04:49:38;-6.00;99.90
12588;DHT22;6359;51.450;7.346;2023-03-01T04:52:05;-6.00;99.90
12588;DHT22;6359;51.450;7.346;2023-03-01T04:54:33;-6.00;99.90
12588;DHT22;6359;51.450;7.346;2023-03-01T04:57:00;-6.10;99.90
12588;DHT22;6359;51.450;7.346;2023-03-01T04:59:27;-6.10;99.90
12588;DHT22;6359;51.450;7.346;2023-03-01T05:01:55;-6.10;99.90
12588;DHT22;6359;51.450;7.346;2023-03-01T05:04:24;-6.10;99.90
12588;DHT22;6359;51.450;7.346;2023-03-01T05:06:51;-6.20;99.90
12588;DHT22;6359;51.450;7.346;2023-03-01T05:09:19;-6.20;99.90
12588;DHT22;6359;51.450;7.346;2023-03-01T05:11:46;-6.30;99.90
12588;DHT22;6359;51.450;7.346;2023-03-01T05:14:13;-6.30;99.90
12588;DHT22;6359;51.450;7.346;2023-03-01T05:16:40;-6.30;99.90
12588;DHT22;6359;51.450;7.346;2023-03-01T05:19:07;-6.40;99.90
12588;DHT22;6359;51.450;7.346;2023-03-01T05:21:42;-6.30;99.90
12588;DHT22;6359;51.450;7.346;2023-03-01T05:24:31;-6.40;99.90
12588;DHT22;6359;51.450;7.346;2023-03-01T05:26:58;-6.40;99.90
12588;DHT22;6359;51.450;7.346;2023-03-01T05:29:26;-6.20;99.90
12588;DHT22;6359;51.450;7.346;2023-03-01T05:31:53;-6.00;99.90
12588;DHT22;6359;51.450;7.346;2023-03-01T05:34:23;-6.00;99.90
12588;DHT22;6359;51.450;7.346;2023-03-01T05:36:52;-6.10;99.90
12588;DHT22;6359;51.450;7.346;2023-03-01T05:39:20;-6.10;99.90
12588;DHT22;6359;51.450;7.346;2023-03-01T05:41:48;-6.20;99.90
12588;DHT22;6359;51.450;7.346;2023-03-01T05:44:15;-6.30;99.90
12588;DHT22;6359;51.450;7.346;2023-03-01T05:46:41;-6.30;99.90
12588;DHT22;6359;51.450;7.346;2023-03-01T05:49:08;-6.40;99.90
12588;DHT22;6359;51.450;7.346;2023-03-01T05:51:35;-6.50;99.90
12588;DHT22;6359;51.450;7.346;2023-03-01T05:54:03;-6.50;99.90
12588;DHT22;6359;51.450;7.346;2023-03-01T05:56:32;-6.50;99.90
12588;DHT22;6359;51.450;7.346;2023-03-01T05:58:59;-6.50;99.90
12588;DHT22;6359;51.450;7.346;2023-03-01T06:01:26;-6.50;99.90
12588;DHT22;6359;51.450;7.346;2023-03-01T06:03:53;-6.40;99.90
12588;DHT22;6359;51.450;7.346;2023-03-01T06:06:20;-6.20;99.90
12588;DHT22;6359;51.450;7.346;2023-03-01T06:08:47;-6.20;99.90
12588;DHT22;6359;51.450;7.346;2023-03-01T06:11:15;-6.20;99.90
12588;DHT22;6359;51.450;7.346;2023-03-01T06:13:42;-6.00;99.90
12588;DHT22;6359;51.450;7.346;2023-03-01T06:16:09;-5.90;99.90
12588;DHT22;6359;51.450;7.346;2023-03-01T06:18:37;-5.70;99.90
12588;DHT22;6359;51.450;7.346;2023-03-01T06:21:04;-5.70;99.90
12588;DHT22;6359;51.450;7.346;2023-03-01T06:23:31;-5.60;99.90
12588;DHT22;6359;51.450;7.346;2023-03-01T06:25:58;-5.60;99.90
12588;DHT22;6359;51.450;7.346;2023-03-01T06:28:27;-5.40;99.90
12588;DHT22;6359;51.450;7.346;2023-03-01T06:30:53;-5.30;99.90
12588;DHT22;6359;51.450;7.346;2023-03-01T06:33:20;-5.20;99.90
12588;DHT22;6359;51.450;7.346;2023-03-01T06:35:49;-5.20;99.90
12588;DHT22;6359;51.450;7.346;2023-03-01T06:38:16;-5.00;99.90
12588;DHT22;6359;51.450;7.346;2023-03-01T06:40:44;-5.00;99.90
12588;DHT22;6359;51.450;7.346;2023-03-01T06:43:11;-4.80;99.90
12588;DHT22;6359;51.450;7.346;2023-03-01T06:45:39;-4.70;99.90
12588;DHT22;6359;51.450;7.346;2023-03-01T06:48:07;-4.60;99.90
12588;DHT22;6359;51.450;7.346;2023-03-01T06:50:34;-4.60;99.90
12588;DHT22;6359;51.450;7.346;2023-03-01T06:53:02;-4.50;99.90
12588;DHT22;6359;51.450;7.346;2023-03-01T06:55:29;-4.50;99.90
12588;DHT22;6359;51.450;7.346;2023-03-01T06:57:56;-4.40;99.90
12588;DHT22;6359;51.450;7.346;2023-03-01T07:00:24;-4.30;99.90
12588;DHT22;6359;51.450;7.346;2023-03-01T07:02:53;-4.30;99.90
12588;DHT22;6359;51.450;7.346;2023-03-01T07:05:20;-4.20;99.90
12588;DHT22;6359;51.450;7.346;2023-03-01T07:07:47;-4.10;99.90
12588;DHT22;6359;51.450;7.346;2023-03-01T07:10:14;-4.10;99.90
12588;DHT22;6359;51.450;7.346;2023-03-01T07:12:40;-4.00;99.90
12588;DHT22;6359;51.450;7.346;2023-03-01T07:15:08;-3.90;99.90
12588;DHT22;6359;51.450;7.346;2023-03-01T07:17:36;-3.80;99.90
12588;DHT22;6359;51.450;7.346;2023-03-01T07:20:05;-3.70;99.90
12588;DHT22;6359;51.450;7.346;2023-03-01T07:22:32;-3.70;99.90
12588;DHT22;6359;51.450;7.346;2023-03-01T07:24:58;-3.60;99.90
12588;DHT22;6359;51.450;7.346;2023-03-01T07:27:25;-3.50;99.90
12588;DHT22;6359;51.450;7.346;2023-03-01T07:29:52;-3.40;99.90
12588;DHT22;6359;51.450;7.346;2023-03-01T07:32:19;-3.30;99.90
12588;DHT22;6359;51.450;7.346;2023-03-01T07:34:46;-3.20;99.90
12588;DHT22;6359;51.450;7.346;2023-03-01T07:37:14;-3.10;99.90
12588;DHT22;6359;51.450;7.346;2023-03-01T07:39:41;-2.90;99.90
12588;DHT22;6359;51.450;7.346;2023-03-01T07:42:08;-2.80;99.90
12588;DHT22;6359;51.450;7.346;2023-03-01T07:44:35;-2.60;99.90
12588;DHT22;6359;51.450;7.346;2023-03-01T07:47:02;-2.50;99.90
12588;DHT22;6359;51.450;7.346;2023-03-01T07:49:29;-2.40;99.90
12588;DHT22;6359;51.450;7.346;2023-03-01T07:51:56;-2.20;99.90
12588;DHT22;6359;51.450;7.346;2023-03-01T07:54:25;-2.00;99.90
12588;DHT22;6359;51.450;7.346;2023-03-01T07:56:52;-1.80;99.90
12588;DHT22;6359;51.450;7.346;2023-03-01T07:59:20;-1.60;99.90
12588;DHT22;6359;51.450;7.346;2023-03-01T08:01:49;-1.20;99.90
12588;DHT22;6359;51.450;7.346;2023-03-01T08:04:16;0.10;99.90
12588;DHT22;6359;51.450;7.346;2023-03-01T08:06:42;2.30;99.90
12588;DHT22;6359;51.450;7.346;2023-03-01T08:09:09;4.10;99.90
12588;DHT22;6359;51.450;7.346;2023-03-01T08:11:37;5.80;99.90
12588;DHT22;6359;51.450;7.346;2023-03-01T08:14:05;6.30;99.90
12588;DHT22;6359;51.450;7.346;2023-03-01T08:16:33;7.70;99.90
12588;DHT22;6359;51.450;7.346;2023-03-01T08:19:04;8.90;99.90
12588;DHT22;6359;51.450;7.346;2023-03-01T08:21:31;9.40;99.90
12588;DHT22;6359;51.450;7.346;2023-03-01T08:23:57;9.90;99.90
12588;DHT22;6359;51.450;7.346;2023-03-01T08:26:24;11.10;99.90
12588;DHT22;6359;51.450;7.346;2023-03-01T08:28:52;11.20;99.90
12588;DHT22;6359;51.450;7.346;2023-03-01T08:31:21;11.70;99.90
12588;DHT22;6359;51.450;7.346;2023-03-01T08:33:50;11.60;99.90
12588;DHT22;6359;51.450;7.346;2023-03-01T08:36:21;11.30;99.90
12588;DHT22;6359;51.450;7.346;2023-03-01T08:38:48;11.70;99.90
12588;DHT22;6359;51.450;7.346;2023-03-01T08:41:15;12.30;99.90
12588;DHT22;6359;51.450;7.346;2023-03-01T08:43:42;12.90;99.90
12588;DHT22;6359;51.450;7.346;2023-03-01T08:46:11;13.40;99.90
12588;DHT22;6359;51.450;7.346;2023-03-01T08:48:38;13.10;99.90
12588;DHT22;6359;51.450;7.346;2023-03-01T08:51:10;12.60;99.90
12588;DHT22;6359;51.450;7.346;2023-03-01T08:53:37;12.50;99.90
12588;DHT22;6359;51.450;7.346;2023-03-01T08:56:04;12.00;99.90
12588;DHT22;6359;51.450;7.346;2023-03-01T08:58:31;12.00;99.90
12588;DHT22;6359;51.450;7.346;2023-03-01T09:00:58;11.90;99.90
12588;DHT22;6359;51.450;7.346;2023-03-01T09:03:27;12.20;99.90
12588;DHT22;6359;51.450;7.346;2023-03-01T09:06:00;12.50;99.90
12588;DHT22;6359;51.450;7.346;2023-03-01T09:08:27;13.00;99.90
12588;DHT22;6359;51.450;7.346;2023-03-01T09:10:53;13.00;99.90
12588;DHT22;6359;51.450;7.346;2023-03-01T09:13:20;13.20;99.90
12588;DHT22;6359;51.450;7.346;2023-03-01T09:15:49;12.70;99.90
12588;DHT22;6359;51.450;7.346;2023-03-01T09:18:16;12.60;99.90
12588;DHT22;6359;51.450;7.346;2023-03-01T09:20:44;13.40;99.90
12588;DHT22;6359;51.450;7.346;2023-03-01T09:23:11;13.70;99.90
12588;DHT22;6359;51.450;7.346;2023-03-01T09:25:38;13.50;99.90
12588;DHT22;6359;51.450;7.346;2023-03-01T09:28:04;12.90;99.90
12588;DHT22;6359;51.450;7.346;2023-03-01T09:30:31;13.30;99.90
12588;DHT22;6359;51.450;7.346;2023-03-01T09:32:58;13.10;99.90
12588;DHT22;6359;51.450;7.346;2023-03-01T09:35:25;13.40;99.90
12588;DHT22;6359;51.450;7.346;2023-03-01T09:37:53;13.10;99.90
12588;DHT22;6359;51.450;7.346;2023-03-01T09:40:23;13.40;99.90
12588;DHT22;6359;51.450;7.346;2023-03-01T09:42:54;13.40;99.90
12588;DHT22;6359;51.450;7.346;2023-03-01T09:45:32;13.00;99.90
12588;DHT22;6359;51.450;7.346;2023-03-01T09:48:00;13.40;99.90
12588;DHT22;6359;51.450;7.346;2023-03-01T09:50:33;13.90;99.90
12588;DHT22;6359;51.450;7.346;2023-03-01T09:53:05;14.10;99.90
12588;DHT22;6359;51.450;7.346;2023-03-01T09:55:38;14.00;99.90
12588;DHT22;6359;51.450;7.346;2023-03-01T10:01:09;13.90;99.90
12588;DHT22;6359;51.450;7.346;2023-03-01T10:03:41;13.10;99.90
12588;DHT22;6359;51.450;7.346;2023-03-01T10:06:14;13.20;99.90
12588;DHT22;6359;51.450;7.346;2023-03-01T10:08:49;13.20;99.90
12588;DHT22;6359;51.450;7.346;2023-03-01T10:11:21;13.30;99.90
12588;DHT22;6359;51.450;7.346;2023-03-01T10:13:55;13.40;99.90
12588;DHT22;6359;51.450;7.346;2023-03-01T10:16:31;13.30;99.90
12588;DHT22;6359;51.450;7.346;2023-03-01T10:19:02;13.40;99.90
12588;DHT22;6359;51.450;7.346;2023-03-01T10:21:31;13.40;99.90
12588;DHT22;6359;51.450;7.346;2023-03-01T10:24:12;13.00;99.90
12588;DHT22;6359;51.450;7.346;2023-03-01T10:26:47;12.60;99.90
12588;DHT22;6359;51.450;7.346;2023-03-01T10:29:14;12.60;99.90
12588;DHT22;6359;51.450;7.346;2023-03-01T10:31:43;11.70;99.90
12588;DHT22;6359;51.450;7.346;2023-03-01T10:34:14;11.30;99.90
12588;DHT22;6359;51.450;7.346;2023-03-01T10:36:42;11.10;99.90
12588;DHT22;6359;51.450;7.346;2023-03-01T10:39:16;11.00;99.90
12588;DHT22;6359;51.450;7.346;2023-03-01T10:41:56;10.80;99.90
12588;DHT22;6359;51.450;7.346;2023-03-01T10:44:38;10.90;99.90
12588;DHT22;6359;51.450;7.346;2023-03-01T10:47:16;11.40;99.90
12588;DHT22;6359;51.450;7.346;2023-03-01T10:49:54;11.90;99.90
12588;DHT22;6359;51.450;7.346;2023-03-01T10:52:23;11.60;99.90
12588;DHT22;6359;51.450;7.346;2023-03-01T10:54:54;11.30;99.90
12588;DHT22;6359;51.450;7.346;2023-03-01T10:57:34;11.80;99.90
12588;DHT22;6359;51.450;7.346;2023-03-01T11:00:21;12.00;99.90
12588;DHT22;6359;51.450;7.346;2023-03-01T11:02:51;12.30;99.90
12588;DHT22;6359;51.450;7.346;2023-03-01T11:05:23;12.40;99.90
12588;DHT22;6359;51.450;7.346;2023-03-01T11:07:51;12.00;99.90
12588;DHT22;6359;51.450;7.346;2023-03-01T11:10:22;11.80;99.90
12588;DHT22;6359;51.450;7.346;2023-03-01T11:12:51;10.60;99.90
12588;DHT22;6359;51.450;7.346;2023-03-01T11:15:25;10.50;99.90
12588;DHT22;6359;51.450;7.346;2023-03-01T11:17:53;10.40;99.90
12588;DHT22;6359;51.450;7.346;2023-03-01T11:20:25;10.30;99.90
12588;DHT22;6359;51.450;7.346;2023-03-01T11:22:55;10.40;99.90
12588;DHT22;6359;51.450;7.346;2023-03-01T11:25:26;10.60;99.90
12588;DHT22;6359;51.450;7.346;2023-03-01T11:27:55;10.70;99.90
12588;DHT22;6359;51.450;7.346;2023-03-01T11:30:27;11.20;99.90
12588;DHT22;6359;51.450;7.346;2023-03-01T11:33:07;11.20;99.90
12588;DHT22;6359;51.450;7.346;2023-03-01T11:35:41;10.10;99.90
12588;DHT22;6359;51.450;7.346;2023-03-01T11:38:22;8.80;99.90
12588;DHT22;6359;51.450;7.346;2023-03-01T11:40:54;9.90;99.90
12588;DHT22;6359;51.450;7.346;2023-03-01T11:43:30;9.90;99.90
12588;DHT22;6359;51.450;7.346;2023-03-01T11:46:35;9.90;99.90
12588;DHT22;6359;51.450;7.346;2023-03-01T11:49:18;10.40;99.90
12588;DHT22;6359;51.450;7.346;2023-03-01T11:51:55;10.10;99.90
12588;DHT22;6359;51.450;7.346;2023-03-01T11:54:33;10.30;99.90
12588;DHT22;6359;51.450;7.346;2023-03-01T11:57:10;10.00;99.90
12588;DHT22;6359;51.450;7.346;2023-03-01T11:59:55;9.00;99.90
12588;DHT22;6359;51.450;7.346;2023-03-01T12:02:42;8.90;99.90
12588;DHT22;6359;51.450;7.346;2023-03-01T12:05:47;8.60;99.90
12588;DHT22;6359;51.450;7.346;2023-03-01T12:08:20;7.90;99.90
12588;DHT22;6359;51.450;7.346;2023-03-01T12:10:57;7.40;99.90
12588;DHT22;6359;51.450;7.346;2023-03-01T12:14:02;7.50;99.90
12588;DHT22;6359;51.450;7.346;2023-03-01T12:16:46;7.30;99.90
12588;DHT22;6359;51.450;7.346;2023-03-01T12:19:31;7.20;99.90
12588;DHT22;6359;51.450;7.346;2023-03-01T12:22:09;7.40;99.90
12588;DHT22;6359;51.450;7.346;2023-03-01T12:28:08;6.90;99.90
12588;DHT22;6359;51.450;7.346;2023-03-01T12:31:18;6.80;99.90
12588;DHT22;6359;51.450;7.346;2023-03-01T12:33:56;6.90;99.90
12588;DHT22;6359;51.450;7.346;2023-03-01T12:36:34;7.10;99.90
12588;DHT22;6359;51.450;7.346;2023-03-01T12:39:18;7.10;99.90
12588;DHT22;6359;51.450;7.346;2023-03-01T12:41:56;6.90;99.90
12588;DHT22;6359;51.450;7.346;2023-03-01T12:44:42;7.00;99.90
12588;DHT22;6359;51.450;7.346;2023-03-01T12:50:24;7.10;99.90
12588;DHT22;6359;51.450;7.346;2023-03-01T12:52:54;7.30;99.90
12588;DHT22;6359;51.450;7.346;2023-03-01T12:55:29;7.10;99.90
12588;DHT22;6359;51.450;7.346;2023-03-01T12:58:04;6.90;99.90
12588;DHT22;6359;51.450;7.346;2023-03-01T13:00:37;6.80;99.90
12588;DHT22;6359;51.450;7.346;2023-03-01T13:03:20;6.70;99.90
12588;DHT22;6359;51.450;7.346;2023-03-01T13:06:00;6.50;99.90
12588;DHT22;6359;51.450;7.346;2023-03-01T13:08:36;6.50;99.90
12588;DHT22;6359;51.450;7.346;2023-03-01T13:11:06;6.70;99.90
12588;DHT22;6359;51.450;7.346;2023-03-01T13:13:38;6.60;99.90
12588;DHT22;6359;51.450;7.346;2023-03-01T13:16:39;6.90;99.90
12588;DHT22;6359;51.450;7.346;2023-03-01T13:19:13;6.80;99.90
12588;DHT22;6359;51.450;7.346;2023-03-01T13:21:41;6.80;99.90
12588;DHT22;6359;51.450;7.346;2023-03-01T13:24:28;6.50;99.90
12588;DHT22;6359;51.450;7.346;2023-03-01T13:27:22;6.60;99.90
12588;DHT22;6359;51.450;7.346;2023-03-01T13:29:56;6.60;99.90
12588;DHT22;6359;51.450;7.346;2023-03-01T13:32:26;6.60;99.90
12588;DHT22;6359;51.450;7.346;2023-03-01T13:34:58;6.60;99.90
12588;DHT22;6359;51.450;7.346;2023-03-01T13:37:31;6.70;99.90
12588;DHT22;6359;51.450;7.346;2023-03-01T13:40:01;6.80;99.90
12588;DHT22;6359;51.450;7.346;2023-03-01T13:42:42;7.00;99.90
12588;DHT22;6359;51.450;7.346;2023-03-01T13:45:21;6.80;99.90
12588;DHT22;6359;51.450;7.346;2023-03-01T13:47:54;6.80;99.90
12588;DHT22;6359;51.450;7.346;2023-03-01T13:50:27;6.90;99.90
12588;DHT22;6359;51.450;7.346;2023-03-01T13:52:56;6.90;99.90
12588;DHT22;6359;51.450;7.346;2023-03-01T13:55:30;6.90;99.90
12588;DHT22;6359;51.450;7.346;2023-03-01T13:58:00;6.90;99.90
12588;DHT22;6359;51.450;7.346;2023-03-01T14:00:39;7.00;99.90
12588;DHT22;6359;51.450;7.346;2023-03-01T14:03:10;7.00;99.90
12588;DHT22;6359;51.450;7.346;2023-03-01T14:05:40;7.10;99.90
12588;DHT22;6359;51.450;7.346;2023-03-01T14:08:20;6.90;99.90
12588;DHT22;6359;51.450;7.346;2023-03-01T14:10:54;6.80;99.90
12588;DHT22;6359;51.450;7.346;2023-03-01T14:13:46;6.80;99.90
12588;DHT22;6359;51.450;7.346;2023-03-01T14:16:23;6.80;99.90
12588;DHT22;6359;51.450;7.346;2023-03-01T14:18:57;6.90;99.90
12588;DHT22;6359;51.450;7.346;2023-03-01T14:21:29;7.00;99.90
12588;DHT22;6359;51.450;7.346;2023-03-01T14:23:57;7.10;99.90
12588;DHT22;6359;51.450;7.346;2023-03-01T14:26:24;6.90;99.90
12588;DHT22;6359;51.450;7.346;2023-03-01T14:28:52;6.90;99.90
12588;DHT22;6359;51.450;7.346;2023-03-01T14:31:45;6.80;99.90
12588;DHT22;6359;51.450;7.346;2023-03-01T14:34:19;6.90;99.90
12588;DHT22;6359;51.450;7.346;2023-03-01T14:36:48;6.80;99.90
12588;DHT22;6359;51.450;7.346;2023-03-01T14:39:19;6.70;99.90
12588;DHT22;6359;51.450;7.346;2023-03-01T14:41:47;6.70;99.90
12588;DHT22;6359;51.450;7.346;2023-03-01T14:44:16;6.80;99.90
12588;DHT22;6359;51.450;7.346;2023-03-01T14:46:45;7.00;99.90
12588;DHT22;6359;51.450;7.346;2023-03-01T14:49:15;7.00;99.90
12588;DHT22;6359;51.450;7.346;2023-03-01T14:51:49;7.00;99.90
12588;DHT22;6359;51.450;7.346;2023-03-01T14:54:24;6.90;99.90
12588;DHT22;6359;51.450;7.346;2023-03-01T14:56:53;6.80;99.90
12588;DHT22;6359;51.450;7.346;2023-03-01T14:59:22;6.70;99.90
12588;DHT22;6359;51.450;7.346;2023-03-01T15:01:50;6.70;99.90
12588;DHT22;6359;51.450;7.346;2023-03-01T15:04:18;6.70;99.90
12588;DHT22;6359;51.450;7.346;2023-03-01T15:06:46;6.80;99.90
12588;DHT22;6359;51.450;7.346;2023-03-01T15:09:16;6.80;99.90
12588;DHT22;6359;51.450;7.346;2023-03-01T15:11:44;6.80;99.90
12588;DHT22;6359;51.450;7.346;2023-03-01T15:14:28;6.70;99.90
12588;DHT22;6359;51.450;7.346;2023-03-01T15:16:56;6.70;99.90
12588;DHT22;6359;51.450;7.346;2023-03-01T15:19:24;6.70;99.90
12588;DHT22;6359;51.450;7.346;2023-03-01T15:21:54;6.70;99.90
12588;DHT22;6359;51.450;7.346;2023-03-01T15:24:25;6.80;99.90
12588;DHT22;6359;51.450;7.346;2023-03-01T15:26:58;6.70;99.90
12588;DHT22;6359;51.450;7.346;2023-03-01T15:29:33;6.80;99.90
12588;DHT22;6359;51.450;7.346;2023-03-01T15:32:20;6.80;99.90
12588;DHT22;6359;51.450;7.346;2023-03-01T15:34:49;6.80;99.90
12588;DHT22;6359;51.450;7.346;2023-03-01T15:37:38;6.80;99.90
12588;DHT22;6359;51.450;7.346;2023-03-01T15:40:20;6.80;99.90
12588;DHT22;6359;51.450;7.346;2023-03-01T15:42:50;6.70;99.90
12588;DHT22;6359;51.450;7.346;2023-03-01T15:45:23;6.70;99.90
12588;DHT22;6359;51.450;7.346;2023-03-01T15:47:54;6.70;99.90
12588;DHT22;6359;51.450;7.346;2023-03-01T15:50:25;6.70;99.90
12588;DHT22;6359;51.450;7.346;2023-03-01T15:52:52;6.70;99.90
12588;DHT22;6359;51.450;7.346;2023-03-01T15:55:22;6.60;99.90
12588;DHT22;6359;51.450;7.346;2023-03-01T15:57:49;6.60;99.90
12588;DHT22;6359;51.450;7.346;2023-03-01T16:00:18;6.50;99.90
12588;DHT22;6359;51.450;7.346;2023-03-01T16:02:45;6.40;99.90
12588;DHT22;6359;51.450;7.346;2023-03-01T16:05:19;6.30;99.90
12588;DHT22;6359;51.450;7.346;2023-03-01T16:07:47;6.20;99.90
12588;DHT22;6359;51.450;7.346;2023-03-01T16:10:14;6.10;99.90
12588;DHT22;6359;51.450;7.346;2023-03-01T16:12:42;6.10;99.90
12588;DHT22;6359;51.450;7.346;2023-03-01T16:15:15;6.10;99.90
12588;DHT22;6359;51.450;7.346;2023-03-01T16:17:43;6.10;99.90
12588;DHT22;6359;51.450;7.346;2023-03-01T16:20:11;6.00;99.90
12588;DHT22;6359;51.450;7.346;2023-03-01T16:22:38;6.00;99.90